| time (UTC) | temp F | wind direction | speed knots | gust knots | rain 1hr in | rain 24hr in | rain mn in | humidity % | barometer mb |
| 20260906120150 | 70 | 104 | 1.7 | 5.2 | 0.00 | 0.03 | 0.00 | 93 | 1014.3 |
| 20260906114634 | 70 | 112 | 0.9 | 6.1 | 0.00 | 0.03 | 0.00 | 93 | 1014.1 |
| 20260906113108 | 70 | 54 | 0.0 | 2.6 | 0.00 | 0.03 | 0.00 | 93 | 1013.9 |
| 20260906111627 | 70 | 98 | 0.0 | 3.5 | 0.00 | 0.03 | 0.00 | 93 | 1013.7 |
| 20260906110125 | 70 | 0 | 0.0 | 3.5 | 0.00 | 0.03 | 0.00 | 93 | 1013.6 |
| 20260906104604 | 70 | 82 | 1.7 | 3.5 | 0.00 | 0.03 | 0.00 | 93 | 1013.4 |
| 20260906103109 | 70 | 0 | 0.0 | 3.5 | 0.00 | 0.03 | 0.00 | 93 | 1013.2 |
| 20260906101608 | 70 | 65 | 0.9 | 3.5 | 0.00 | 0.03 | 0.00 | 93 | 1013.0 |
| 20260906100108 | 70 | 94 | 0.9 | 3.5 | 0.00 | 0.03 | 0.00 | 93 | 1013.0 |
| 20260906094606 | 70 | 137 | 0.9 | 3.5 | 0.00 | 0.03 | 0.00 | 93 | 1012.9 |
| 20260906093108 | 70 | 99 | 2.6 | 5.2 | 0.00 | 0.03 | 0.00 | 93 | 1012.8 |
| 20260906091603 | 70 | 95 | 2.6 | 5.2 | 0.00 | 0.03 | 0.00 | 93 | 1012.9 |
| 20260906090105 | 70 | 98 | 1.7 | 3.5 | 0.00 | 0.03 | 0.00 | 93 | 1012.8 |
| 20260906084609 | 70 | 63 | 0.9 | 3.5 | 0.00 | 0.03 | 0.00 | 93 | 1013.0 |
| 20260906083105 | 70 | 85 | 0.9 | 2.6 | 0.00 | 0.03 | 0.00 | 93 | 1013.0 |
| 20260906081605 | 70 | 275 | 0.0 | 1.7 | 0.00 | 0.03 | 0.00 | 93 | 1013.1 |
| 20260906080105 | 70 | 0 | 0.0 | 0.9 | 0.00 | 0.03 | 0.00 | 93 | 1013.0 |
| 20260906074602 | 70 | 0 | 0.0 | 0.0 | 0.00 | 0.03 | 0.00 | 93 | 1012.7 |
| 20260906073104 | 70 | 0 | 0.0 | 1.7 | 0.00 | 0.03 | 0.00 | 93 | 1012.6 |
| 20260906071604 | 70 | 166 | 0.0 | 1.7 | 0.00 | 0.03 | 0.00 | 93 | 1012.4 |
| 20260906070107 | 70 | 224 | 0.0 | 1.7 | 0.00 | 0.03 | 0.00 | 93 | 1012.2 |
| 20260906064608 | 70 | 224 | 0.0 | 2.6 | 0.00 | 0.03 | 0.00 | 92 | 1012.4 |
| 20260906063106 | 71 | 0 | 0.0 | 1.7 | 0.00 | 0.03 | 0.00 | 92 | 1012.7 |
| 20260906061608 | 71 | 0 | 0.0 | 0.9 | 0.00 | 0.03 | 0.00 | 92 | 1012.9 |
| 20260906060112 | 71 | 0 | 0.0 | 0.9 | 0.00 | 0.03 | 0.00 | 92 | 1012.8 |
| 20260906054632 | 72 | 0 | 0.0 | 2.6 | 0.00 | 0.03 | 0.00 | 92 | 1012.8 |
| 20260906053105 | 72 | 0 | 0.0 | 1.7 | 0.00 | 0.03 | 0.00 | 92 | 1012.8 |
| 20260906051605 | 72 | 0 | 0.0 | 1.7 | 0.00 | 0.03 | 0.00 | 92 | 1012.9 |
| 20260906050108 | 72 | 0 | 0.0 | 3.5 | 0.00 | 0.03 | 0.00 | 92 | 1012.6 |
| 20260906044606 | 72 | 194 | 0.9 | 2.6 | 0.00 | 0.03 | 0.00 | 91 | 1012.9 |
| 20260906043104 | 72 | 233 | 0.0 | 1.7 | 0.00 | 0.03 | 0.00 | 91 | 1012.7 |
| 20260906041605 | 73 | 0 | 0.0 | 1.7 | 0.00 | 0.03 | 0.00 | 91 | 1012.6 |
| 20260906040114 | 73 | 0 | 0.0 | 2.6 | 0.00 | 0.03 | 0.00 | 91 | 1012.4 |
| 20260906034609 | 73 | 0 | 0.0 | 2.6 | 0.00 | 0.03 | 0.03 | 91 | 1012.6 |
| 20260906033131 | 73 | 160 | 0.0 | 3.5 | 0.00 | 0.03 | 0.03 | 90 | 1012.8 |
| 20260906031616 | 74 | 145 | 0.0 | 2.6 | 0.00 | 0.03 | 0.03 | 90 | 1012.9 |
| 20260906024608 | 74 | 0 | 0.0 | 0.0 | 0.00 | 0.03 | 0.03 | 89 | 1013.3 |
| 20260906023134 | 74 | 0 | 0.0 | 0.0 | 0.00 | 0.03 | 0.03 | 88 | 1013.3 |
| 20260906021615 | 75 | 0 | 0.0 | 0.9 | 0.00 | 0.03 | 0.03 | 88 | 1013.3 |
| 20260906020106 | 75 | 141 | 0.0 | 1.7 | 0.00 | 0.03 | 0.03 | 87 | 1013.2 |
| 20260906014606 | 76 | 0 | 0.0 | 2.6 | 0.00 | 0.03 | 0.03 | 86 | 1013.0 |
| 20260906013112 | 76 | 167 | 0.0 | 1.7 | 0.00 | 0.03 | 0.03 | 85 | 1012.6 |
| 20260906011607 | 77 | 167 | 0.0 | 1.7 | 0.00 | 0.03 | 0.03 | 83 | 1012.0 |
| 20260906010105 | 78 | 167 | 0.0 | 1.7 | 0.00 | 0.03 | 0.03 | 81 | 1011.9 |
| 20260906004605 | 78 | 0 | 1.7 | 3.5 | 0.00 | 0.03 | 0.03 | 78 | 1012.1 |
| 20260906003105 | 79 | 0 | 0.0 | 0.9 | 0.00 | 0.03 | 0.03 | 76 | 1012.0 |
| 20260906001605 | 80 | 0 | 0.0 | 0.9 | 0.00 | 0.03 | 0.03 | 73 | 1012.0 |
| 20260906000108 | 81 | 0 | 0.0 | 1.7 | 0.00 | 0.03 | 0.03 | 71 | 1011.9 |
| 20260905234608 | 82 | 39 | 0.0 | 2.6 | 0.00 | 0.03 | 0.03 | 70 | 1012.2 |
| 20260905233104 | 82 | 28 | 0.0 | 2.6 | 0.00 | 0.03 | 0.03 | 69 | 1012.3 |
| 20260905231634 | 83 | 33 | 0.0 | 2.6 | 0.00 | 0.03 | 0.03 | 69 | 1012.3 |
| 20260905230108 | 83 | 0 | 0.0 | 3.5 | 0.00 | 0.03 | 0.03 | 68 | 1012.3 |
| 20260905224615 | 83 | 26 | 2.6 | 7.0 | 0.00 | 0.03 | 0.03 | 67 | 1012.3 |
| 20260905223107 | 84 | 0 | 0.9 | 5.2 | 0.00 | 0.03 | 0.03 | 65 | 1012.4 |
| 20260905221606 | 85 | 330 | 1.7 | 5.2 | 0.00 | 0.03 | 0.03 | 63 | 1012.4 |
| 20260905220107 | 86 | 345 | 1.7 | 7.0 | 0.00 | 0.03 | 0.03 | 62 | 1012.2 |
| 20260905214605 | 86 | 351 | 0.9 | 7.8 | 0.00 | 0.03 | 0.03 | 62 | 1012.1 |
| 20260905213110 | 86 | 55 | 1.7 | 6.1 | 0.00 | 0.03 | 0.03 | 63 | 1012.1 |
| 20260905211612 | 87 | 10 | 1.7 | 6.1 | 0.00 | 0.03 | 0.03 | 63 | 1011.9 |
| 20260905210105 | 87 | 54 | 1.7 | 5.2 | 0.00 | 0.03 | 0.03 | 62 | 1011.7 |
| 20260905204618 | 86 | 354 | 2.6 | 7.8 | 0.00 | 0.03 | 0.03 | 63 | 1011.6 |
| 20260905203119 | 86 | 330 | 2.6 | 8.7 | 0.00 | 0.03 | 0.03 | 64 | 1011.9 |
| 20260905201610 | 86 | 311 | 4.3 | 10.4 | 0.00 | 0.03 | 0.03 | 62 | 1011.8 |
| 20260905200120 | 87 | 232 | 0.9 | 5.2 | 0.00 | 0.03 | 0.03 | 61 | 1012.1 |
| 20260905194612 | 87 | 0 | 0.0 | 6.1 | 0.00 | 0.03 | 0.03 | 59 | 1012.1 |
| 20260905193103 | 87 | 289 | 0.9 | 6.1 | 0.00 | 0.03 | 0.03 | 58 | 1012.3 |
| 20260905191606 | 86 | 167 | 0.0 | 3.5 | 0.00 | 0.03 | 0.03 | 62 | 1012.6 |
| 20260905190106 | 85 | 312 | 0.9 | 2.6 | 0.00 | 0.03 | 0.03 | 62 | 1013.0 |
| 20260905184621 | 85 | 0 | 0.0 | 5.2 | 0.00 | 0.04 | 0.03 | 63 | 1013.3 |
| 20260905183106 | 84 | 110 | 0.9 | 7.0 | 0.00 | 0.04 | 0.03 | 67 | 1013.5 |
| 20260905181603 | 84 | 0 | 0.0 | 3.5 | 0.00 | 0.04 | 0.03 | 68 | 1013.6 |
| 20260905180121 | 84 | 97 | 2.6 | 6.1 | 0.00 | 0.04 | 0.03 | 66 | 1013.8 |
| 20260905174607 | 83 | 325 | 0.9 | 3.5 | 0.00 | 0.04 | 0.03 | 70 | 1013.8 |
| 20260905173106 | 82 | 343 | 1.7 | 6.1 | 0.00 | 0.04 | 0.03 | 72 | 1014.0 |
| 20260905171607 | 80 | 62 | 0.9 | 6.1 | 0.00 | 0.04 | 0.03 | 75 | 1014.2 |
| 20260905170126 | 80 | 116 | 2.6 | 6.1 | 0.00 | 0.04 | 0.03 | 76 | 1014.1 |
| 20260905164606 | 78 | 70 | 2.6 | 5.2 | 0.00 | 0.04 | 0.03 | 79 | 1014.5 |
| 20260905163109 | 77 | 112 | 1.7 | 3.5 | 0.00 | 0.04 | 0.03 | 83 | 1014.8 |
| 20260905161607 | 77 | 330 | 0.9 | 2.6 | 0.00 | 0.04 | 0.03 | 85 | 1014.9 |
| 20260905160104 | 76 | 205 | 0.9 | 2.6 | 0.00 | 0.04 | 0.03 | 86 | 1015.1 |
| 20260905154615 | 75 | 204 | 0.9 | 8.7 | 0.00 | 0.04 | 0.03 | 87 | 1014.6 |
| 20260905153108 | 75 | 251 | 5.2 | 9.6 | 0.00 | 0.04 | 0.03 | 88 | 1014.9 |
| 20260905151614 | 75 | 262 | 1.7 | 7.0 | 0.00 | 0.04 | 0.03 | 88 | 1014.3 |
| 20260905150104 | 75 | 0 | 0.9 | 7.0 | 0.00 | 0.04 | 0.03 | 89 | 1014.0 |
| 20260905144609 | 74 | 0 | 0.9 | 9.6 | 0.00 | 0.04 | 0.03 | 91 | 1013.9 |
| 20260905143105 | 74 | 175 | 1.7 | 7.0 | 0.00 | 0.04 | 0.03 | 91 | 1014.0 |
| 20260905141606 | 74 | 145 | 0.9 | 5.2 | 0.03 | 0.04 | 0.03 | 91 | 1014.8 |
| 20260905140108 | 73 | 235 | 1.7 | 3.5 | 0.03 | 0.04 | 0.03 | 91 | 1015.2 |
| 20260905134608 | 73 | 335 | 0.9 | 2.6 | 0.03 | 0.04 | 0.03 | 91 | 1015.6 |
| 20260905133105 | 73 | 161 | 0.9 | 4.3 | 0.03 | 0.04 | 0.03 | 91 | 1015.4 |
| 20260905131608 | 73 | 42 | 2.6 | 4.3 | 0.00 | 0.01 | 0.00 | 91 | 1015.8 |
| 20260905130106 | 72 | 70 | 0.9 | 3.5 | 0.00 | 0.01 | 0.00 | 92 | 1015.6 |
| 20260905124603 | 72 | 44 | 2.6 | 9.6 | 0.00 | 0.01 | 0.00 | 92 | 1015.5 |
| 20260905123102 | 72 | 80 | 5.2 | 13.9 | 0.00 | 0.01 | 0.00 | 93 | 1015.4 |
| 20260905121606 | 73 | 102 | 2.6 | 7.8 | 0.00 | 0.01 | 0.00 | 94 | 1015.6 |